Time;durP1;ratioP1;P1;durP2;ratioP2;P2;SDS_P1;SDS_P2;PMS_P1;PMS_P2;Temp;Humidity;BMP_temperature;BMP_pressure;BME280_temperature;BME280_humidity;BME280_pressure;Samples;Min_cycle;Max_cycle;Signal;HPM_P1;HPM_P2
2023/04/11 00:00:52;;;;;;;21.90;18.73;;;;;19.80;99823.00;;;;2071008;28;21994;-63
2023/04/11 00:01:53;;;;;;;22.63;18.33;;;;;19.70;99823.00;;;;2071568;28;20214;-63
2023/04/11 00:02:58;;;;;;;20.20;17.43;;;;;19.70;99811.00;;;;2071727;28;20230;-63
2023/04/11 00:03:59;;;;;;;20.80;17.70;;;;;19.80;99811.00;;;;2071212;28;20214;-63
2023/04/11 00:05:00;;;;;;;19.20;17.00;;;;;19.70;99805.00;;;;2071470;28;20222;-63
2023/04/11 00:06:00;;;;;;;19.57;16.60;;;;;19.70;99813.00;;;;2071637;28;20256;-63
2023/04/11 00:07:00;;;;;;;18.80;16.60;;;;;19.70;99802.00;;;;2072382;28;20457;-63
2023/04/11 00:08:00;;;;;;;19.17;16.10;;;;;19.70;99821.00;;;;2066846;28;20272;-63
2023/04/11 00:09:01;;;;;;;19.93;16.37;;;;;19.70;99812.00;;;;2070877;28;21011;-63
2023/04/11 00:10:01;;;;;;;20.83;16.43;;;;;19.70;99819.00;;;;2071752;28;20644;-63
2023/04/11 00:11:02;;;;;;;19.00;15.70;;;;;19.70;99818.00;;;;2071057;28;20210;-63
2023/04/11 00:12:03;;;;;;;17.23;15.27;;;;;19.70;99803.00;;;;2070891;28;20251;-63
2023/04/11 00:13:06;;;;;;;16.83;15.02;;;;;19.80;99810.00;;;;2063022;28;20306;-63
2023/04/11 00:14:07;;;;;;;16.10;13.57;;;;;19.80;99811.00;;;;2062651;28;20211;-63
2023/04/11 00:15:08;;;;;;;16.75;14.15;;;;;19.80;99807.00;;;;2071583;28;20221;-63
2023/04/11 00:16:09;;;;;;;15.90;14.20;;;;;19.70;99810.00;;;;2072665;28;20217;-63
2023/04/11 00:17:11;;;;;;;15.63;13.97;;;;;19.80;99819.00;;;;2077079;28;20488;-63
2023/04/11 00:18:11;;;;;;;16.65;13.90;;;;;19.70;99808.00;;;;2071206;28;20206;-63
2023/04/11 00:19:11;;;;;;;17.20;15.37;;;;;19.70;99808.00;;;;2071436;28;20226;-63
2023/04/11 00:20:13;;;;;;;16.17;14.10;;;;;19.70;99818.00;;;;2071662;28;20203;-62
2023/04/11 00:21:13;;;;;;;17.10;13.55;;;;;19.70;99811.00;;;;2070971;28;20583;-63
2023/04/11 00:22:17;;;;;;;16.10;13.20;;;;;19.80;99808.00;;;;2071499;28;20219;-63
2023/04/11 00:23:17;;;;;;;14.40;12.90;;;;;19.70;99802.00;;;;2070996;28;20222;-63
2023/04/11 00:24:18;;;;;;;14.27;12.70;;;;;19.70;99807.00;;;;2071692;28;20245;-63
2023/04/11 00:25:18;;;;;;;15.17;13.47;;;;;19.70;99811.00;;;;2071180;28;20230;-63
2023/04/11 00:26:20;;;;;;;15.03;12.17;;;;;19.70;99804.00;;;;2071215;28;20622;-63
2023/04/11 00:27:20;;;;;;;13.73;12.30;;;;;19.70;99818.00;;;;2071471;28;20228;-63
2023/04/11 00:28:21;;;;;;;14.60;11.83;;;;;19.70;99808.00;;;;2074316;28;20582;-63
2023/04/11 00:29:21;;;;;;;16.63;13.33;;;;;19.70;99809.00;;;;2071367;28;20719;-63
2023/04/11 00:30:21;;;;;;;13.07;11.73;;;;;19.70;99818.00;;;;2070057;28;20856;-63
2023/04/11 00:31:22;;;;;;;17.13;11.33;;;;;19.70;99819.00;;;;2071476;28;20220;-63
2023/04/11 00:32:23;;;;;;;13.50;12.10;;;;;19.70;99818.00;;;;2070973;28;20267;-63
2023/04/11 00:33:23;;;;;;;12.88;11.07;;;;;19.70;99812.00;;;;2071263;28;20690;-63
2023/04/11 00:34:24;;;;;;;13.07;11.67;;;;;19.70;99821.00;;;;2071615;28;20238;-63
2023/04/11 00:35:24;;;;;;;12.00;10.63;;;;;19.70;99811.00;;;;2070679;28;20329;-63
2023/04/11 00:36:25;;;;;;;12.33;11.00;;;;;19.70;99808.00;;;;2070999;28;20464;-65
2023/04/11 00:37:26;;;;;;;11.63;10.40;;;;;19.70;99805.00;;;;2073473;28;20214;-63
2023/04/11 00:38:26;;;;;;;14.10;11.20;;;;;19.70;99809.00;;;;2073836;28;20870;-64
2023/04/11 00:39:29;;;;;;;11.50;10.30;;;;;19.70;99819.00;;;;2070532;28;20568;-63
2023/04/11 00:40:30;;;;;;;12.65;10.55;;;;;19.70;99802.00;;;;2076638;28;20226;-63
2023/04/11 00:41:30;;;;;;;13.10;10.97;;;;;19.70;99801.00;;;;2071198;28;20253;-63
2023/04/11 00:42:31;;;;;;;13.80;12.30;;;;;19.70;99821.00;;;;2065623;28;20535;-63
2023/04/11 00:43:31;;;;;;;12.87;11.20;;;;;19.70;99807.00;;;;2070383;28;20672;-62
2023/04/11 00:44:31;;;;;;;10.70;9.43;;;;;19.70;99820.00;;;;2061833;28;20219;-63
2023/04/11 00:45:32;;;;;;;10.97;9.77;;;;;19.70;99813.00;;;;2062613;28;20215;-62
2023/04/11 00:46:34;;;;;;;10.53;8.73;;;;;19.70;99813.00;;;;2057154;28;20715;-63
2023/04/11 00:47:35;;;;;;;10.85;9.55;;;;;19.70;99809.00;;;;2062637;28;20722;-63
2023/04/11 00:48:35;;;;;;;11.30;9.57;;;;;19.60;99809.00;;;;2071260;28;20238;-63
2023/04/11 00:49:35;;;;;;;13.93;10.80;;;;;19.70;99813.00;;;;2070475;28;20279;-63
2023/04/11 00:50:39;;;;;;;10.83;9.00;;;;;19.70;99810.00;;;;2062610;28;20215;-63
2023/04/11 00:51:39;;;;;;;11.57;9.50;;;;;19.70;99798.00;;;;2061711;28;20250;-63
2023/04/11 00:52:40;;;;;;;10.93;8.47;;;;;19.70;99798.00;;;;2071197;28;20202;-63
2023/04/11 00:53:40;;;;;;;10.20;9.03;;;;;19.70;99792.00;;;;2061473;28;20210;-63
2023/04/11 00:54:40;;;;;;;10.90;8.47;;;;;19.60;99786.00;;;;2062690;28;20238;-63
2023/04/11 00:55:41;;;;;;;11.30;8.80;;;;;19.60;99798.00;;;;2061110;28;20217;-63
2023/04/11 00:56:41;;;;;;;9.50;8.17;;;;;19.70;99781.00;;;;2061758;28;20643;-63
2023/04/11 00:57:42;;;;;;;10.07;8.40;;;;;19.60;99804.00;;;;2054277;28;20778;-63
2023/04/11 00:58:42;;;;;;;12.50;8.63;;;;;19.60;99802.00;;;;2065082;28;20321;-63
2023/04/11 00:59:43;;;;;;;8.77;7.87;;;;;19.70;99801.00;;;;2072540;28;20509;-63
2023/04/11 01:00:43;;;;;;;10.20;8.47;;;;;19.60;99805.00;;;;2061695;28;20337;-63
2023/04/11 01:01:43;;;;;;;10.00;8.17;;;;;19.60;99820.00;;;;2057880;28;20215;-63
2023/04/11 01:02:44;;;;;;;9.40;7.93;;;;;19.60;99801.00;;;;2062427;28;20222;-63
2023/04/11 01:03:44;;;;;;;10.60;8.33;;;;;19.60;99802.00;;;;2070508;28;20249;-63
2023/04/11 01:04:45;;;;;;;10.00;7.67;;;;;19.60;99784.00;;;;2070749;28;20296;-63
2023/04/11 01:05:45;;;;;;;11.10;8.03;;;;;19.60;99805.00;;;;2061626;28;20230;-63
2023/04/11 01:06:48;;;;;;;9.17;7.87;;;;;19.60;99801.00;;;;2054370;28;20223;-63
2023/04/11 01:07:49;;;;;;;9.32;7.70;;;;;19.60;99818.00;;;;2061032;28;20302;-63
2023/04/11 01:08:49;;;;;;;9.30;7.70;;;;;19.60;99807.00;;;;2062498;28;20293;-63
2023/04/11 01:09:50;;;;;;;10.27;6.60;;;;;19.60;99799.00;;;;2061607;28;20219;-63
2023/04/11 01:10:50;;;;;;;8.60;7.07;;;;;19.60;99824.00;;;;2062178;28;20222;-63
2023/04/11 01:11:50;;;;;;;8.07;7.20;;;;;19.60;99818.00;;;;2062135;28;20275;-63
2023/04/11 01:12:51;;;;;;;7.83;7.03;;;;;19.60;99788.00;;;;2070533;28;20297;-63
2023/04/11 01:13:51;;;;;;;8.90;7.27;;;;;19.60;99812.00;;;;2062287;28;20210;-63
2023/04/11 01:14:51;;;;;;;9.27;7.67;;;;;19.60;99823.00;;;;2053826;28;20211;-63
2023/04/11 01:15:52;;;;;;;9.03;6.67;;;;;19.60;99802.00;;;;2062100;28;20229;-63
2023/04/11 01:16:55;;;;;;;9.27;6.70;;;;;19.60;99810.00;;;;2062506;28;20215;-63
2023/04/11 01:17:56;;;;;;;9.00;7.10;;;;;19.60;99797.00;;;;2071318;28;20686;-63
2023/04/11 01:18:56;;;;;;;8.50;7.40;;;;;19.60;99801.00;;;;2078905;28;20216;-63
2023/04/11 01:19:57;;;;;;;7.37;6.60;;;;;19.60;99800.00;;;;2078023;28;20209;-63
2023/04/11 01:20:59;;;;;;;7.80;6.40;;;;;19.60;99802.00;;;;2079003;28;20209;-63
2023/04/11 01:22:00;;;;;;;8.35;6.30;;;;;19.60;99788.00;;;;2077313;28;20213;-62
2023/04/11 01:23:01;;;;;;;8.43;6.80;;;;;19.60;99801.00;;;;2070791;28;20213;-64
2023/04/11 01:24:02;;;;;;;7.23;6.10;;;;;19.60;99797.00;;;;2078609;28;20236;-63
2023/04/11 01:25:03;;;;;;;7.85;6.50;;;;;19.60;99801.00;;;;2081173;28;20291;-63
2023/04/11 01:26:04;;;;;;;8.82;6.65;;;;;19.60;99795.00;;;;2078645;28;20236;-63
2023/04/11 01:27:04;;;;;;;8.40;6.43;;;;;19.60;99803.00;;;;2078164;28;20209;-63
2023/04/11 01:28:05;;;;;;;8.97;7.00;;;;;19.60;99796.00;;;;2078667;28;20702;-63
2023/04/11 01:29:05;;;;;;;6.60;5.93;;;;;19.60;99792.00;;;;2077727;28;20693;-63
2023/04/11 01:30:06;;;;;;;7.97;6.20;;;;;19.60;99798.00;;;;2078753;28;20213;-63
2023/04/11 01:31:07;;;;;;;6.35;5.25;;;;;19.60;99798.00;;;;2079294;28;20224;-63
2023/04/11 01:32:07;;;;;;;9.20;6.40;;;;;19.60;99786.00;;;;2082726;28;20334;-63
2023/04/11 01:33:09;;;;;;;6.50;5.73;;;;;19.60;99785.00;;;;2079232;28;20750;-63
2023/04/11 01:34:12;;;;;;;6.72;5.60;;;;;19.60;99801.00;;;;2077978;28;20206;-63
2023/04/11 01:35:12;;;;;;;6.95;5.55;;;;;19.60;99785.00;;;;2070961;28;20206;-63
2023/04/11 01:36:13;;;;;;;7.77;5.53;;;;;19.60;99797.00;;;;2070071;28;20637;-63
2023/04/11 01:37:13;;;;;;;6.93;5.67;;;;;19.60;99794.00;;;;2078606;28;20562;-63
2023/04/11 01:38:14;;;;;;;6.93;5.67;;;;;19.60;99789.00;;;;2078863;28;20228;-63
2023/04/11 01:39:14;;;;;;;7.47;5.60;;;;;19.60;99796.00;;;;2078922;28;20201;-63
2023/04/11 01:40:16;;;;;;;7.53;5.90;;;;;19.50;99791.00;;;;2079124;28;20588;-63
2023/04/11 01:41:16;;;;;;;10.43;5.57;;;;;19.50;99806.00;;;;2080788;28;20270;-63
2023/04/11 01:42:16;;;;;;;7.40;5.43;;;;;19.50;99801.00;;;;2075023;28;20322;-63
2023/04/11 01:43:17;;;;;;;8.67;6.13;;;;;19.50;99801.00;;;;2067947;28;20225;-63
2023/04/11 01:44:17;;;;;;;5.90;4.67;;;;;19.50;99792.00;;;;2070356;28;20664;-63
2023/04/11 01:45:18;;;;;;;6.33;5.50;;;;;19.50;99803.00;;;;2062085;28;20881;-63
2023/04/11 01:46:18;;;;;;;7.17;5.13;;;;;19.50;99793.00;;;;2061764;28;21120;-63
2023/04/11 01:47:18;;;;;;;6.90;5.63;;;;;19.50;99796.00;;;;2062085;28;20866;-63
2023/04/11 01:48:19;;;;;;;7.10;5.40;;;;;19.50;99793.00;;;;2072943;28;20216;-63
2023/04/11 01:49:20;;;;;;;7.03;5.70;;;;;19.50;99792.00;;;;2078946;28;20221;-63
2023/04/11 01:50:20;;;;;;;7.88;4.88;;;;;19.50;99788.00;;;;2078487;28;20248;-63
2023/04/11 01:51:21;;;;;;;9.00;4.53;;;;;19.50;99796.00;;;;2079200;28;20580;-63
2023/04/11 01:52:21;;;;;;;5.73;4.60;;;;;19.50;99783.00;;;;2078562;28;20206;-63
2023/04/11 01:53:21;;;;;;;5.27;4.63;;;;;19.50;99784.00;;;;2083750;28;20212;-63
2023/04/11 01:54:22;;;;;;;7.37;4.90;;;;;19.50;99784.00;;;;2079126;28;20211;-63
2023/04/11 01:55:22;;;;;;;6.23;5.00;;;;;19.50;99784.00;;;;2083273;28;20212;-63
2023/04/11 01:56:22;;;;;;;6.27;4.70;;;;;19.50;99783.00;;;;2080621;28;20297;-63
2023/04/11 01:57:23;;;;;;;6.90;4.33;;;;;19.50;99778.00;;;;2078599;28;20216;-63
2023/04/11 01:58:23;;;;;;;6.10;4.73;;;;;19.50;99794.00;;;;2079149;28;20209;-63
2023/04/11 01:59:23;;;;;;;6.30;5.20;;;;;19.50;99789.00;;;;2079486;28;20214;-63
2023/04/11 02:00:23;;;;;;;7.77;4.27;;;;;19.50;99789.00;;;;2078441;28;20263;-63
2023/04/11 02:01:24;;;;;;;8.43;4.70;;;;;19.50;99793.00;;;;2079091;28;20213;-63
2023/04/11 02:02:24;;;;;;;5.20;4.40;;;;;19.50;99795.00;;;;2077793;28;20335;-63
2023/04/11 02:03:25;;;;;;;6.23;4.33;;;;;19.50;99806.00;;;;2079144;28;20268;-63
2023/04/11 02:04:25;;;;;;;6.70;4.50;;;;;19.50;99797.00;;;;2078304;28;20222;-63
2023/04/11 02:05:25;;;;;;;8.50;4.93;;;;;19.50;99803.00;;;;2079067;28;20231;-63
2023/04/11 02:06:26;;;;;;;7.17;4.60;;;;;19.50;99801.00;;;;2077847;28;20217;-63
2023/04/11 02:07:26;;;;;;;6.60;4.30;;;;;19.50;99797.00;;;;2078494;28;20275;-63
2023/04/11 02:08:27;;;;;;;6.97;4.27;;;;;19.50;99809.00;;;;2079036;28;20474;-63
2023/04/11 02:09:27;;;;;;;5.40;4.20;;;;;19.50;99812.00;;;;2078030;28;20225;-63
2023/04/11 02:10:27;;;;;;;7.70;4.90;;;;;19.40;99810.00;;;;2079215;28;20244;-63
2023/04/11 02:11:28;;;;;;;6.60;4.47;;;;;19.50;99809.00;;;;2077988;28;20221;-63
2023/04/11 02:12:28;;;;;;;6.90;4.40;;;;;19.50;99804.00;;;;2078896;28;20217;-62
2023/04/11 02:13:28;;;;;;;7.80;4.73;;;;;19.50;99802.00;;;;2079075;28;20279;-63
2023/04/11 02:14:41;;;;;;;11.33;5.03;;;;;19.50;99802.00;;;;2083607;28;20216;-63
2023/04/11 02:15:41;;;;;;;7.57;4.40;;;;;19.40;99808.00;;;;2079132;28;20225;-63
2023/04/11 02:16:51;;;;;;;7.23;4.20;;;;;19.50;99823.00;;;;2078196;28;20688;-63
2023/04/11 02:17:53;;;;;;;9.25;4.70;;;;;19.40;99821.00;;;;2078476;28;20218;-63
2023/04/11 02:18:53;;;;;;;7.00;4.15;;;;;19.50;99821.00;;;;2078149;28;20255;-63
2023/04/11 02:19:53;;;;;;;6.70;4.57;;;;;19.50;99833.00;;;;2078970;28;20220;-63
2023/04/11 02:20:54;;;;;;;7.40;4.40;;;;;19.40;99817.00;;;;2078277;28;20227;-63
2023/04/11 02:21:54;;;;;;;7.10;4.30;;;;;19.40;99823.00;;;;2078813;28;20264;-63
2023/04/11 02:22:54;;;;;;;7.17;4.07;;;;;19.40;99832.00;;;;2077805;28;20306;-63
2023/04/11 02:23:55;;;;;;;7.40;3.60;;;;;19.40;99821.00;;;;2079187;28;20766;-63
2023/04/11 02:24:55;;;;;;;9.00;4.50;;;;;19.50;99826.00;;;;2079077;28;20256;-63
2023/04/11 02:25:56;;;;;;;8.27;4.67;;;;;19.40;99823.00;;;;2077427;28;20744;-61
2023/04/11 02:26:56;;;;;;;6.03;4.07;;;;;19.50;99826.00;;;;2078969;28;20953;-63
2023/04/11 02:27:56;;;;;;;6.33;4.20;;;;;19.50;99828.00;;;;2078520;28;20228;-63
2023/04/11 02:28:56;;;;;;;6.73;4.67;;;;;19.50;99826.00;;;;2079000;28;20236;-63
2023/04/11 02:29:57;;;;;;;7.33;4.40;;;;;19.40;99831.00;;;;2078323;28;20217;-62
2023/04/11 02:30:57;;;;;;;9.07;4.50;;;;;19.40;99830.00;;;;2074808;28;20240;-63
2023/04/11 02:31:57;;;;;;;6.27;4.40;;;;;19.40;99826.00;;;;2078757;28;20229;-63
2023/04/11 02:32:58;;;;;;;7.07;4.50;;;;;19.40;99826.00;;;;2078441;28;20221;-63
2023/04/11 02:33:58;;;;;;;6.63;4.20;;;;;19.40;99820.00;;;;2078887;28;20233;-63
2023/04/11 02:34:59;;;;;;;6.60;4.43;;;;;19.40;99823.00;;;;2078203;28;20210;-63
2023/04/11 02:35:59;;;;;;;6.97;3.80;;;;;19.40;99826.00;;;;2079091;28;20209;-63
2023/04/11 02:37:00;;;;;;;6.33;3.87;;;;;19.40;99829.00;;;;2077900;28;20241;-63
2023/04/11 02:38:00;;;;;;;8.47;4.53;;;;;19.40;99826.00;;;;2078086;28;20210;-63
2023/04/11 02:39:00;;;;;;;6.13;3.97;;;;;19.40;99828.00;;;;2078295;28;20689;-63
2023/04/11 02:40:01;;;;;;;9.13;4.27;;;;;19.40;99826.00;;;;2077917;28;20221;-63
2023/04/11 02:41:02;;;;;;;5.87;3.73;;;;;19.40;99826.00;;;;2078981;28;20228;-63
2023/04/11 02:42:03;;;;;;;6.85;4.38;;;;;19.40;99823.00;;;;2076906;28;20202;-63
2023/04/11 02:43:03;;;;;;;7.07;3.77;;;;;19.40;99821.00;;;;2073727;28;20221;-63
2023/04/11 02:44:03;;;;;;;6.93;3.93;;;;;19.40;99812.00;;;;2077900;28;20632;-63
2023/04/11 02:45:04;;;;;;;6.90;4.50;;;;;19.40;99823.00;;;;2078605;28;20279;-63
2023/04/11 02:46:05;;;;;;;8.20;4.03;;;;;19.40;99822.00;;;;2078790;28;20217;-63
2023/04/11 02:47:05;;;;;;;8.47;4.10;;;;;19.40;99830.00;;;;2080442;28;20221;-63
2023/04/11 02:48:07;;;;;;;8.30;3.93;;;;;19.40;99839.00;;;;2078874;28;20471;-63
2023/04/11 02:49:07;;;;;;;6.22;3.58;;;;;19.40;99832.00;;;;2078022;28;20228;-63
2023/04/11 02:50:07;;;;;;;8.93;3.83;;;;;19.40;99823.00;;;;2078721;28;20208;-63
2023/04/11 02:51:08;;;;;;;6.30;3.90;;;;;19.40;99831.00;;;;2078807;28;20764;-63
2023/04/11 02:52:08;;;;;;;8.80;5.17;;;;;19.40;99828.00;;;;2081357;28;20685;-63
2023/04/11 02:53:09;;;;;;;6.43;3.53;;;;;19.40;99831.00;;;;2078874;28;20266;-63
2023/04/11 02:54:10;;;;;;;7.70;3.70;;;;;19.40;99826.00;;;;2085072;28;20300;-63
2023/04/11 02:55:10;;;;;;;8.50;3.67;;;;;19.40;99826.00;;;;2080459;28;20256;-63
2023/04/11 02:56:12;;;;;;;6.57;3.73;;;;;19.40;99799.00;;;;2079618;28;20209;-63
2023/04/11 02:57:12;;;;;;;6.32;3.50;;;;;19.40;99828.00;;;;2080433;28;20202;-63
2023/04/11 02:58:16;;;;;;;7.60;3.57;;;;;19.40;99843.00;;;;2080685;28;20208;-63
2023/04/11 02:59:16;;;;;;;7.85;3.65;;;;;19.40;99834.00;;;;2085574;28;20240;-63
2023/04/11 03:00:20;;;;;;;8.07;4.17;;;;;19.40;99823.00;;;;2080431;28;20255;-63
2023/04/11 03:01:24;;;;;;;6.53;3.67;;;;;19.40;99823.00;;;;2082137;28;20316;-63
2023/04/11 03:02:24;;;;;;;8.35;3.67;;;;;19.40;99835.00;;;;2080228;28;20271;-63
2023/04/11 03:03:25;;;;;;;7.20;3.63;;;;;19.40;99836.00;;;;2079822;28;20225;-63
2023/04/11 03:04:26;;;;;;;8.80;4.70;;;;;19.40;99833.00;;;;2080454;28;20264;-63
2023/04/11 03:05:26;;;;;;;6.83;3.40;;;;;19.40;99826.00;;;;2079682;28;20220;-63
2023/04/11 03:06:27;;;;;;;6.67;3.87;;;;;19.40;99841.00;;;;2080063;28;20626;-63
2023/04/11 03:07:27;;;;;;;6.43;3.10;;;;;19.40;99841.00;;;;2078681;28;20217;-63
2023/04/11 03:08:27;;;;;;;7.07;3.50;;;;;19.40;99845.00;;;;2079337;28;20220;-63
2023/04/11 03:09:27;;;;;;;8.30;3.90;;;;;19.40;99842.00;;;;2079364;28;20218;-64
2023/04/11 03:10:28;;;;;;;6.40;3.27;;;;;19.40;99837.00;;;;2079497;28;20224;-63
2023/04/11 03:11:28;;;;;;;5.43;3.00;;;;;19.40;99836.00;;;;2080177;28;20220;-63
2023/04/11 03:12:28;;;;;;;6.63;3.30;;;;;19.40;99838.00;;;;2081399;28;20214;-63
2023/04/11 03:13:29;;;;;;;6.23;3.33;;;;;19.40;99838.00;;;;2080482;28;20227;-63
2023/04/11 03:14:29;;;;;;;7.90;3.73;;;;;19.40;99838.00;;;;2079187;28;20216;-63
2023/04/11 03:15:31;;;;;;;7.27;4.00;;;;;19.40;99834.00;;;;2080072;28;20567;-63
2023/04/11 03:16:31;;;;;;;6.03;3.65;;;;;19.40;99845.00;;;;2079479;28;20221;-63
2023/04/11 03:17:32;;;;;;;6.70;3.20;;;;;19.40;99837.00;;;;2070508;28;20241;-63
2023/04/11 03:18:32;;;;;;;7.85;3.80;;;;;19.40;99845.00;;;;2079402;28;20241;-63
2023/04/11 03:19:33;;;;;;;7.23;3.50;;;;;19.30;99838.00;;;;2082670;28;20223;-63
2023/04/11 03:20:33;;;;;;;6.00;3.43;;;;;19.30;99835.00;;;;2083651;28;20214;-63
2023/04/11 03:21:33;;;;;;;5.70;2.80;;;;;19.30;99841.00;;;;2079346;28;20241;-63
2023/04/11 03:22:34;;;;;;;7.30;3.63;;;;;19.30;99840.00;;;;2079894;28;20214;-63
2023/04/11 03:23:34;;;;;;;6.33;3.30;;;;;19.40;99844.00;;;;2080258;28;20240;-63
2023/04/11 03:24:35;;;;;;;6.80;3.53;;;;;19.30;99840.00;;;;2078615;28;20922;-63
2023/04/11 03:25:39;;;;;;;6.17;3.50;;;;;19.30;99843.00;;;;2079410;28;20214;-63
2023/04/11 03:26:39;;;;;;;8.20;3.40;;;;;19.40;99841.00;;;;2080530;28;20205;-63
2023/04/11 03:27:40;;;;;;;6.47;3.37;;;;;19.40;99833.00;;;;2079995;28;20209;-63
2023/04/11 03:28:40;;;;;;;7.30;3.47;;;;;19.40;99831.00;;;;2081038;28;20197;-63
2023/04/11 03:29:41;;;;;;;7.70;3.70;;;;;19.30;99833.00;;;;2080881;28;21090;-63
2023/04/11 03:30:41;;;;;;;8.83;3.60;;;;;19.30;99837.00;;;;2080077;28;20696;-63
2023/04/11 03:31:41;;;;;;;7.60;3.40;;;;;19.30;99835.00;;;;2079077;28;20283;-63
2023/04/11 03:32:42;;;;;;;8.13;3.40;;;;;19.30;99836.00;;;;2078827;28;20205;-63
2023/04/11 03:33:43;;;;;;;5.60;2.87;;;;;19.30;99843.00;;;;2077733;28;20285;-63
2023/04/11 03:34:44;;;;;;;7.65;3.30;;;;;19.10;99838.00;;;;2070172;28;20345;-63
2023/04/11 03:35:44;;;;;;;5.17;2.97;;;;;19.30;99838.00;;;;2078553;28;20659;-63
2023/04/11 03:36:44;;;;;;;6.83;3.43;;;;;19.30;99838.00;;;;2080096;28;20226;-63
2023/04/11 03:37:45;;;;;;;6.80;3.10;;;;;19.30;99840.00;;;;2079284;28;20700;-63
2023/04/11 03:38:46;;;;;;;5.45;2.97;;;;;19.30;99833.00;;;;2078445;28;20574;-63
2023/04/11 03:39:46;;;;;;;7.53;3.50;;;;;19.30;99839.00;;;;2079873;28;22232;-63
2023/04/11 03:40:46;;;;;;;5.03;2.77;;;;;19.30;99835.00;;;;2078927;28;20228;-63
2023/04/11 03:41:47;;;;;;;7.73;3.30;;;;;19.30;99849.00;;;;2079638;28;20229;-63
2023/04/11 03:42:48;;;;;;;8.13;3.50;;;;;19.30;99836.00;;;;2074891;28;20228;-63
2023/04/11 03:43:48;;;;;;;7.60;3.20;;;;;19.30;99843.00;;;;2083716;28;20463;-63
2023/04/11 03:44:49;;;;;;;5.73;3.67;;;;;19.30;99844.00;;;;2080202;28;20233;-62
2023/04/11 03:45:50;;;;;;;6.77;3.83;;;;;19.30;99837.00;;;;2082979;28;20243;-63
2023/04/11 03:46:50;;;;;;;6.43;3.85;;;;;19.30;99842.00;;;;2080089;28;20889;-63
2023/04/11 03:47:51;;;;;;;8.30;3.30;;;;;19.30;99838.00;;;;2080038;28;20221;-63
2023/04/11 03:48:51;;;;;;;6.97;3.07;;;;;19.30;99845.00;;;;2080250;28;20302;-63
2023/04/11 03:49:52;;;;;;;7.60;3.27;;;;;19.30;99855.00;;;;2079365;28;20283;-63
2023/04/11 03:50:52;;;;;;;7.80;3.10;;;;;19.30;99845.00;;;;2080139;28;20248;-63
2023/04/11 03:51:52;;;;;;;4.80;2.97;;;;;19.30;99852.00;;;;2079700;28;20225;-62
2023/04/11 03:52:52;;;;;;;5.33;2.90;;;;;19.30;99851.00;;;;2078804;28;20209;-63
2023/04/11 03:53:53;;;;;;;6.23;3.43;;;;;19.30;99845.00;;;;2079591;28;20233;-63
2023/04/11 03:54:53;;;;;;;6.30;3.40;;;;;19.30;99852.00;;;;2081509;28;20213;-63
2023/04/11 03:55:54;;;;;;;8.23;2.77;;;;;19.30;99865.00;;;;2080186;28;20210;-63
2023/04/11 03:56:54;;;;;;;7.93;3.10;;;;;19.30;99859.00;;;;2080304;28;20217;-63
2023/04/11 03:57:55;;;;;;;7.20;2.90;;;;;19.30;99863.00;;;;2082597;28;20213;-63
2023/04/11 03:58:55;;;;;;;8.80;3.50;;;;;19.30;99862.00;;;;2079819;28;20209;-63
2023/04/11 03:59:56;;;;;;;4.93;2.83;;;;;19.30;99865.00;;;;2079389;28;20464;-63
2023/04/11 04:00:56;;;;;;;6.77;3.30;;;;;19.30;99857.00;;;;2079881;28;20212;-63
2023/04/11 04:01:56;;;;;;;7.50;3.07;;;;;19.30;99863.00;;;;2083267;28;20236;-63
2023/04/11 04:02:57;;;;;;;8.70;3.27;;;;;19.30;99861.00;;;;2081272;28;20397;-63
2023/04/11 04:03:59;;;;;;;5.27;2.87;;;;;19.30;99868.00;;;;2079415;28;20584;-63
2023/04/11 04:05:00;;;;;;;8.75;3.05;;;;;19.30;99869.00;;;;2079246;28;20214;-63
2023/04/11 04:06:00;;;;;;;6.47;3.30;;;;;19.30;99866.00;;;;2079837;28;20214;-63
2023/04/11 04:07:01;;;;;;;6.83;3.20;;;;;19.30;99876.00;;;;2079399;28;20233;-63
2023/04/11 04:08:01;;;;;;;8.90;3.30;;;;;19.30;99878.00;;;;2079851;28;20237;-63
2023/04/11 04:09:03;;;;;;;7.00;3.00;;;;;19.30;99868.00;;;;2079112;28;20241;-63
2023/04/11 04:10:03;;;;;;;8.18;3.00;;;;;19.30;99872.00;;;;2079612;28;20209;-63
2023/04/11 04:11:04;;;;;;;9.03;3.40;;;;;19.30;99870.00;;;;2079420;28;20226;-63
2023/04/11 04:12:04;;;;;;;7.20;2.93;;;;;19.30;99865.00;;;;2079721;28;20546;-63
2023/04/11 04:13:05;;;;;;;7.73;3.30;;;;;19.30;99864.00;;;;2079705;28;20216;-62
2023/04/11 04:14:05;;;;;;;5.10;3.07;;;;;19.30;99869.00;;;;2079166;28;20244;-63
2023/04/11 04:15:06;;;;;;;7.00;3.13;;;;;19.20;99870.00;;;;2079943;28;20229;-63
2023/04/11 04:16:06;;;;;;;8.67;3.30;;;;;19.20;99869.00;;;;2079080;28;20704;-62
2023/04/11 04:17:07;;;;;;;6.93;3.30;;;;;19.20;99867.00;;;;2079917;28;20696;-63
2023/04/11 04:18:07;;;;;;;5.90;2.93;;;;;19.20;99870.00;;;;2080993;28;20638;-63
2023/04/11 04:19:08;;;;;;;6.73;3.43;;;;;19.20;99866.00;;;;2080747;28;20221;-63
2023/04/11 04:20:09;;;;;;;7.40;3.43;;;;;19.20;99865.00;;;;2079541;28;20273;-63
2023/04/11 04:21:10;;;;;;;7.38;3.10;;;;;19.20;99872.00;;;;2079709;28;20317;-63
2023/04/11 04:22:10;;;;;;;9.37;3.40;;;;;19.20;99872.00;;;;2079562;28;20574;-63
2023/04/11 04:23:12;;;;;;;8.43;3.43;;;;;19.20;99877.00;;;;2078947;28;20683;-63
2023/04/11 04:24:13;;;;;;;7.50;3.30;;;;;19.20;99884.00;;;;2079840;28;20287;-63
2023/04/11 04:25:14;;;;;;;7.20;3.43;;;;;19.20;99896.00;;;;2078926;28;20221;-63
2023/04/11 04:26:15;;;;;;;6.80;3.20;;;;;19.20;99881.00;;;;2079801;28;20355;-62
2023/04/11 04:27:18;;;;;;;7.37;3.20;;;;;19.20;99886.00;;;;2079020;28;20692;-63
2023/04/11 04:28:21;;;;;;;7.65;3.67;;;;;19.20;99888.00;;;;2085559;28;20313;-63
2023/04/11 04:29:21;;;;;;;7.65;2.75;;;;;19.20;99884.00;;;;2079686;28;20240;-63
2023/04/11 04:30:22;;;;;;;7.03;3.33;;;;;19.20;99891.00;;;;2078802;28;20221;-63
2023/04/11 04:31:24;;;;;;;6.90;3.17;;;;;19.20;99878.00;;;;2079757;28;20684;-63
2023/04/11 04:32:27;;;;;;;7.55;3.97;;;;;19.20;99905.00;;;;2078701;28;20223;-63
2023/04/11 04:33:31;;;;;;;6.53;3.08;;;;;19.20;99879.00;;;;2079588;28;20636;-63
2023/04/11 04:34:32;;;;;;;7.35;3.00;;;;;19.20;99883.00;;;;2078735;28;20271;-63
2023/04/11 04:35:32;;;;;;;6.80;3.03;;;;;19.20;99885.00;;;;2074416;28;20214;-63
2023/04/11 04:36:45;;;;;;;8.00;2.90;;;;;19.20;99893.00;;;;2079177;28;20272;-63
2023/04/11 04:37:45;;;;;;;6.97;3.17;;;;;19.20;99892.00;;;;2079622;28;20214;-63
2023/04/11 04:38:46;;;;;;;6.87;3.63;;;;;19.20;99896.00;;;;2079266;28;20663;-63
2023/04/11 04:40:01;;;;;;;5.65;3.42;;;;;19.20;99884.00;;;;2077877;28;20224;-63
2023/04/11 04:41:04;;;;;;;6.38;3.78;;;;;19.20;99887.00;;;;2079261;28;20221;-63
2023/04/11 04:42:05;;;;;;;7.57;3.08;;;;;19.20;99891.00;;;;2080321;28;20263;-63
2023/04/11 04:43:10;;;;;;;7.70;3.50;;;;;19.20;99896.00;;;;2074936;28;20280;-63
2023/04/11 04:44:10;;;;;;;9.60;3.83;;;;;19.20;99895.00;;;;2078871;28;20278;-63
2023/04/11 04:45:11;;;;;;;6.60;3.20;;;;;19.20;99889.00;;;;2079593;28;20632;-63
2023/04/11 04:46:11;;;;;;;6.90;3.23;;;;;19.20;99899.00;;;;2078976;28;20926;-63
2023/04/11 04:47:11;;;;;;;9.80;3.20;;;;;19.20;99901.00;;;;2079496;28;20747;-63
2023/04/11 04:48:12;;;;;;;7.40;3.63;;;;;19.20;99908.00;;;;2079402;28;20219;-63
2023/04/11 04:49:12;;;;;;;7.63;3.43;;;;;19.20;99897.00;;;;2078866;28;20210;-63
2023/04/11 04:50:13;;;;;;;8.30;3.17;;;;;19.10;99896.00;;;;2079562;28;20584;-63
2023/04/11 04:51:13;;;;;;;6.43;2.80;;;;;19.10;99896.00;;;;2078753;28;20640;-63
2023/04/11 04:52:13;;;;;;;9.20;3.53;;;;;19.10;99899.00;;;;2079375;28;20685;-63
2023/04/11 04:53:14;;;;;;;4.60;2.93;;;;;19.20;99889.00;;;;2078575;28;20233;-63
2023/04/11 04:54:18;;;;;;;6.00;2.97;;;;;19.20;99873.00;;;;2079390;28;20213;-63
2023/04/11 04:55:18;;;;;;;6.45;3.40;;;;;19.20;99897.00;;;;2078975;28;20343;-63
2023/04/11 04:56:18;;;;;;;6.17;3.00;;;;;19.20;99903.00;;;;2079281;28;20252;-63
2023/04/11 04:57:20;;;;;;;6.60;3.20;;;;;19.20;99909.00;;;;2079471;28;20236;-63
2023/04/11 04:58:20;;;;;;;7.80;3.30;;;;;19.10;99896.00;;;;2080237;28;20298;-62
2023/04/11 04:59:20;;;;;;;6.90;3.47;;;;;19.00;99898.00;;;;2079417;28;20248;-63
2023/04/11 05:00:21;;;;;;;11.23;3.50;;;;;19.10;99904.00;;;;2081166;28;20247;-63
2023/04/11 05:01:25;;;;;;;7.70;3.13;;;;;19.10;99906.00;;;;2080125;28;20223;-63
2023/04/11 05:02:25;;;;;;;7.28;3.35;;;;;19.10;99897.00;;;;2078391;28;20229;-62
2023/04/11 05:03:25;;;;;;;5.10;2.67;;;;;19.10;99913.00;;;;2079557;28;20260;-63